Aérodrome :
LOGIN :

S'inscrire | Disclaimer

   EN    FR    IT 

 










Légende :    VFR   VFR Marginal   IFR   IFR Intensif   IFR Très Intensif
Visi : 
Plafond : 
>= 8 km
>= 3000ft
5 à 8 km
1000 à 3000 ft
1500m à 5 km
500 à 1000 ft
800 à 1500m
200 à 500 ft
< 800m
< 200 ft
Symboles :   Orages  Brouillard  Fortes neiges  Fortes précipitations  Vent > 20 kt
SIGMETs :   Divers  Orages  Givrage  Turbulence  Onde Orograph.  Cendres Volcan.






- Altitude de l'aérodrome : 2096 ft
- Code IATA : AUR


LFLW - Aurillac

DERNIER METAR :
  • 022200Z AUTO 10005KT 9999 ////// 15/12 Q1015

METARs EXPIRÉS :
  • 022130Z AUTO 10007KT 9999 ////// 16/12 Q1015
  • 022100Z AUTO 10006KT 9999 ////// 16/12 Q1015
  • 022030Z AUTO 09006KT 9999 ////// 17/13 Q1015
  • 022000Z AUTO 10006KT 9999 2900 ////// 17/14 Q1015
  • 021930Z AUTO 12001KT 9999 ////// 19/15 Q1015
  • 021900Z AUTO VRB03KT 9999 ////// 20/14 Q1015

Prévision TAF périmée.



MET'MAP, la Météo Aéronautique d'un coup d'oeil ! - Copyright ORBIFLY Décembre 2007 - Disclaimer

ORBIFLY MET'MAP TEAM :

Programmation & Développement : Alexandra Zaïnal
Sur une idée originale de : Baudouin d'Aumeries
Assistance à la programmation : Marc-Olivier Méhu
Soutien technique & logistique : Manuel Goepfert

Contact : metmap@orbifly.com




SOURCES & CREDITS :

   NOAA